createdAt,value
2023-03-29T00:01:58.206Z,45.99
2023-03-29T00:04:24.577Z,45.50
2023-03-29T00:06:50.911Z,47.54
2023-03-29T00:09:17.217Z,47.51
2023-03-29T00:11:43.534Z,49.37
2023-03-29T00:14:09.861Z,49.58
2023-03-29T00:16:36.205Z,50.09
2023-03-29T00:19:02.525Z,49.21
2023-03-29T00:21:28.834Z,50.29
2023-03-29T00:23:55.138Z,50.33
2023-03-29T00:26:21.457Z,49.11
2023-03-29T00:28:47.786Z,48.04
2023-03-29T00:31:14.167Z,47.97
2023-03-29T00:33:40.506Z,46.20
2023-03-29T00:36:07.039Z,45.65
2023-03-29T00:38:33.463Z,44.90
2023-03-29T00:40:59.942Z,45.54
2023-03-29T00:43:26.382Z,45.14
2023-03-29T00:45:52.690Z,45.41
2023-03-29T00:48:19.038Z,44.82
2023-03-29T00:50:45.397Z,45.16
2023-03-29T00:53:11.736Z,45.34
2023-03-29T00:55:38.054Z,47.21
2023-03-29T00:58:04.383Z,49.08
2023-03-29T01:00:30.734Z,49.74
2023-03-29T01:02:57.184Z,50.63
2023-03-29T01:05:23.578Z,52.40
2023-03-29T01:07:49.903Z,52.23
2023-03-29T01:10:16.246Z,51.99
2023-03-29T01:12:42.591Z,50.71
2023-03-29T01:15:08.917Z,49.64
2023-03-29T01:17:35.282Z,49.70
2023-03-29T01:20:01.647Z,48.80
2023-03-29T01:22:27.978Z,46.37
2023-03-29T01:24:54.299Z,45.62
2023-03-29T01:27:20.607Z,46.57
2023-03-29T01:29:46.917Z,47.48
2023-03-29T01:32:13.228Z,47.59
2023-03-29T01:34:39.548Z,47.35
2023-03-29T01:37:05.865Z,45.68
2023-03-29T01:39:32.174Z,45.06
2023-03-29T01:41:58.478Z,45.56
2023-03-29T01:44:24.788Z,45.55
2023-03-29T01:46:52.213Z,44.34
2023-03-29T01:49:18.608Z,45.28
2023-03-29T01:51:44.943Z,45.94
2023-03-29T01:54:11.269Z,45.56
2023-03-29T01:56:37.613Z,46.67
2023-03-29T01:59:03.990Z,47.56
2023-03-29T02:01:30.353Z,48.89
2023-03-29T02:03:56.683Z,49.75
2023-03-29T02:06:22.986Z,50.81
2023-03-29T02:08:49.294Z,49.90
2023-03-29T02:11:15.645Z,48.62
2023-03-29T02:13:41.971Z,47.75
2023-03-29T02:16:08.316Z,48.16
2023-03-29T02:18:34.671Z,47.72
2023-03-29T02:21:01.131Z,48.57
2023-03-29T02:23:27.617Z,48.86
2023-03-29T02:25:53.972Z,49.00
2023-03-29T02:28:20.289Z,49.58
2023-03-29T02:30:46.739Z,49.48
2023-03-29T02:33:13.086Z,49.84
2023-03-29T02:35:39.423Z,50.73
2023-03-29T02:38:05.768Z,50.34
2023-03-29T02:40:32.117Z,50.36
2023-03-29T02:42:58.438Z,50.02
2023-03-29T02:45:24.761Z,50.38
2023-03-29T02:47:51.105Z,49.88
2023-03-29T02:50:17.438Z,49.75
2023-03-29T02:52:43.787Z,49.26
2023-03-29T02:55:10.107Z,47.98
2023-03-29T02:57:36.448Z,46.99
2023-03-29T03:00:02.768Z,46.55
2023-03-29T03:02:29.119Z,46.27
2023-03-29T03:04:55.459Z,46.25
2023-03-29T03:07:21.791Z,46.95
2023-03-29T03:09:48.112Z,46.54
2023-03-29T03:12:14.441Z,46.31
2023-03-29T03:14:40.756Z,46.94
2023-03-29T03:17:07.088Z,46.11
2023-03-29T03:19:33.422Z,47.21
2023-03-29T03:21:59.774Z,47.16
2023-03-29T03:24:26.073Z,47.33
2023-03-29T03:26:52.381Z,45.60
2023-03-29T03:29:18.719Z,45.33
2023-03-29T03:31:45.096Z,45.31
2023-03-29T03:34:11.724Z,45.06
2023-03-29T03:36:38.080Z,44.98
2023-03-29T03:39:04.409Z,44.77
2023-03-29T03:41:30.740Z,45.13
2023-03-29T03:43:57.050Z,44.44
2023-03-29T03:46:23.448Z,45.86
2023-03-29T03:48:49.843Z,46.70
2023-03-29T03:51:16.188Z,46.36
2023-03-29T03:53:42.501Z,45.33
2023-03-29T03:56:08.888Z,44.44
2023-03-29T03:58:35.276Z,43.68
2023-03-29T04:01:01.794Z,43.77
2023-03-29T04:03:28.349Z,44.08
2023-03-29T04:05:54.736Z,43.98
2023-03-29T04:08:21.038Z,44.76
2023-03-29T04:10:47.367Z,45.31
2023-03-29T04:13:13.937Z,45.13
2023-03-29T04:15:40.301Z,44.82
2023-03-29T04:18:06.715Z,45.37
2023-03-29T04:20:33.105Z,44.31
2023-03-29T04:22:59.519Z,44.65
2023-03-29T04:25:25.848Z,44.42
2023-03-29T04:27:52.161Z,44.42
2023-03-29T04:30:18.516Z,44.34
2023-03-29T04:32:44.924Z,44.58
2023-03-29T04:35:11.249Z,44.75
2023-03-29T04:37:37.565Z,44.49
2023-03-29T04:40:03.904Z,44.66
2023-03-29T04:42:30.227Z,44.08
2023-03-29T04:44:56.549Z,43.84
2023-03-29T04:47:22.897Z,44.26
2023-03-29T04:49:49.238Z,43.46
2023-03-29T04:52:15.562Z,44.32
2023-03-29T04:54:41.876Z,44.43
2023-03-29T04:57:08.295Z,44.32
2023-03-29T04:59:34.649Z,44.04
2023-03-29T05:02:01.001Z,43.54
2023-03-29T05:04:27.385Z,43.62
2023-03-29T05:06:53.708Z,44.27
2023-03-29T05:09:20.031Z,43.90
2023-03-29T05:11:46.337Z,44.12
2023-03-29T05:14:12.661Z,44.58
2023-03-29T05:16:39.097Z,44.53
2023-03-29T05:19:05.506Z,44.01
2023-03-29T05:21:31.825Z,44.52
2023-03-29T05:23:58.168Z,45.05
2023-03-29T05:26:24.482Z,45.12
2023-03-29T05:28:50.803Z,45.35
2023-03-29T05:31:17.351Z,44.89
2023-03-29T05:33:43.707Z,45.18
2023-03-29T05:36:10.048Z,45.28
2023-03-29T05:38:36.405Z,45.63
2023-03-29T05:41:02.839Z,45.69
2023-03-29T05:43:29.314Z,46.15
2023-03-29T05:45:55.744Z,45.40
2023-03-29T05:48:22.084Z,45.63
2023-03-29T05:50:48.412Z,45.51
2023-03-29T05:53:14.722Z,45.32
2023-03-29T05:55:41.022Z,45.92
2023-03-29T05:58:07.345Z,45.70
2023-03-29T06:00:33.678Z,45.26
2023-03-29T06:03:13.311Z,45.43
2023-03-29T06:05:44.175Z,44.91
2023-03-29T06:08:10.483Z,44.92
2023-03-29T06:10:36.809Z,45.15
2023-03-29T06:13:03.161Z,45.57
2023-03-29T06:15:29.467Z,45.55
2023-03-29T06:17:55.793Z,46.18
2023-03-29T06:20:22.167Z,45.59
2023-03-29T06:22:48.490Z,46.80
2023-03-29T06:25:14.806Z,46.53
2023-03-29T06:27:41.145Z,46.09
2023-03-29T06:30:07.484Z,45.12
2023-03-29T06:32:33.865Z,45.24
2023-03-29T06:35:00.220Z,45.05
2023-03-29T06:37:26.550Z,45.62
2023-03-29T06:39:53.370Z,46.47
2023-03-29T06:42:21.559Z,45.57
2023-03-29T06:44:48.265Z,46.09
2023-03-29T06:47:14.586Z,45.87
2023-03-29T06:49:40.924Z,45.87
2023-03-29T06:52:07.262Z,46.17
2023-03-29T06:54:33.581Z,46.15
2023-03-29T06:56:59.964Z,45.82
2023-03-29T06:59:26.356Z,46.50
2023-03-29T07:01:52.722Z,46.61
2023-03-29T07:04:19.096Z,46.78
2023-03-29T07:06:45.526Z,47.33
2023-03-29T07:09:11.855Z,46.05
2023-03-29T07:11:38.178Z,45.96
2023-03-29T07:14:04.488Z,46.36
2023-03-29T07:16:30.838Z,46.60
2023-03-29T07:18:57.176Z,46.73
2023-03-29T07:21:23.509Z,45.64
2023-03-29T07:23:49.813Z,45.14
2023-03-29T07:26:16.115Z,45.99
2023-03-29T07:28:55.165Z,45.86
2023-03-29T07:31:21.470Z,46.11
2023-03-29T07:33:47.863Z,45.64
2023-03-29T07:36:14.284Z,46.43
2023-03-29T07:38:40.626Z,45.94
2023-03-29T07:41:06.988Z,45.73
2023-03-29T07:43:33.419Z,44.79
2023-03-29T07:45:59.760Z,45.03
2023-03-29T07:48:26.098Z,45.15
2023-03-29T07:50:52.405Z,45.58
2023-03-29T07:53:18.734Z,46.54
2023-03-29T07:55:47.007Z,46.25
2023-03-29T07:58:13.808Z,45.85
2023-03-29T08:00:40.188Z,46.81
2023-03-29T08:03:06.618Z,46.22
2023-03-29T08:05:40.640Z,46.60
2023-03-29T08:08:08.180Z,46.03
2023-03-29T08:10:34.537Z,45.88
2023-03-29T08:13:00.884Z,45.82
2023-03-29T08:15:27.237Z,46.27
2023-03-29T08:17:53.644Z,45.93
2023-03-29T08:20:20.042Z,46.01
2023-03-29T08:22:46.363Z,46.05
2023-03-29T08:25:13.866Z,44.77
2023-03-29T08:27:40.215Z,44.97
2023-03-29T08:30:06.571Z,45.08
2023-03-29T08:32:32.944Z,43.97
2023-03-29T08:34:59.265Z,43.70
2023-03-29T08:37:25.589Z,43.31
2023-03-29T08:39:51.927Z,43.18
2023-03-29T08:42:18.233Z,43.32
2023-03-29T08:44:44.631Z,43.98
2023-03-29T08:47:10.934Z,43.84
2023-03-29T08:49:37.261Z,43.26
2023-03-29T08:52:03.601Z,43.60
2023-03-29T08:54:29.922Z,43.45
2023-03-29T08:56:56.285Z,43.29
2023-03-29T08:59:22.610Z,43.84
2023-03-29T09:01:48.969Z,44.05
2023-03-29T09:04:17.292Z,44.42
2023-03-29T09:06:43.619Z,43.32
2023-03-29T09:09:09.943Z,43.06
2023-03-29T09:11:36.278Z,44.22
2023-03-29T09:14:02.595Z,44.50
2023-03-29T09:16:28.960Z,44.44
2023-03-29T09:18:55.309Z,44.26
2023-03-29T09:21:21.621Z,42.88
2023-03-29T09:23:47.955Z,42.31
2023-03-29T09:26:14.297Z,41.74
2023-03-29T09:28:40.621Z,41.90
2023-03-29T09:31:06.993Z,41.99
2023-03-29T09:33:33.327Z,42.09
2023-03-29T09:35:59.704Z,42.51
2023-03-29T09:38:26.021Z,42.50
2023-03-29T09:40:52.345Z,43.03
2023-03-29T09:43:18.660Z,42.63
2023-03-29T09:45:45.018Z,43.48
2023-03-29T09:48:11.538Z,42.69
2023-03-29T09:50:37.954Z,43.67
2023-03-29T09:53:04.271Z,43.16
2023-03-29T09:55:30.610Z,43.07
2023-03-29T09:57:57.108Z,42.49
2023-03-29T10:00:23.441Z,42.40
2023-03-29T10:02:49.816Z,43.89
2023-03-29T10:05:16.155Z,43.43
2023-03-29T10:07:42.486Z,42.65
2023-03-29T10:10:08.805Z,44.17
2023-03-29T10:12:35.152Z,44.00
2023-03-29T10:15:01.473Z,43.22
2023-03-29T10:17:27.821Z,43.78
2023-03-29T10:19:54.230Z,43.83
2023-03-29T10:22:20.574Z,44.05
2023-03-29T10:24:46.902Z,43.90
2023-03-29T10:27:13.232Z,44.68
2023-03-29T10:29:39.548Z,44.07
2023-03-29T10:32:05.905Z,44.66
2023-03-29T10:34:32.261Z,44.92
2023-03-29T10:36:58.607Z,44.46
2023-03-29T10:39:24.932Z,44.88
2023-03-29T10:41:51.272Z,44.03
2023-03-29T10:44:17.577Z,43.09
2023-03-29T10:46:43.986Z,42.29
2023-03-29T10:49:10.459Z,43.02
2023-03-29T10:51:36.791Z,42.41
2023-03-29T10:54:03.156Z,43.05
2023-03-29T10:56:29.489Z,41.69
2023-03-29T10:58:55.824Z,41.99
2023-03-29T11:01:22.158Z,41.68
2023-03-29T11:03:48.608Z,43.22
2023-03-29T11:06:14.971Z,41.73
2023-03-29T11:08:41.275Z,42.79
2023-03-29T11:11:07.624Z,41.64
2023-03-29T11:13:33.957Z,41.82
2023-03-29T11:16:00.322Z,40.89
2023-03-29T11:18:26.650Z,40.21
2023-03-29T11:20:52.971Z,41.30
2023-03-29T11:23:19.301Z,40.76
2023-03-29T11:25:45.628Z,42.31
2023-03-29T11:28:11.942Z,40.89
2023-03-29T11:30:38.250Z,42.43
2023-03-29T11:33:04.595Z,42.59
2023-03-29T11:35:30.975Z,42.49
2023-03-29T11:37:57.344Z,43.09
2023-03-29T11:40:23.704Z,42.96
2023-03-29T11:42:50.010Z,40.77
2023-03-29T11:45:16.353Z,41.12
2023-03-29T11:47:42.838Z,40.46
2023-03-29T11:50:09.203Z,41.02
2023-03-29T11:52:35.525Z,40.09
2023-03-29T11:55:01.826Z,41.35
2023-03-29T11:57:28.227Z,39.47
2023-03-29T11:59:54.674Z,39.16
2023-03-29T12:02:21.160Z,40.03
2023-03-29T12:04:47.555Z,41.70
2023-03-29T12:07:13.867Z,38.68
2023-03-29T12:09:40.198Z,39.97
2023-03-29T12:12:06.521Z,42.45
2023-03-29T12:14:32.826Z,42.39
2023-03-29T12:16:59.190Z,41.74
2023-03-29T12:19:25.623Z,41.40
2023-03-29T12:21:51.953Z,42.21
2023-03-29T12:24:18.266Z,42.19
2023-03-29T12:26:44.619Z,41.83
2023-03-29T12:29:10.963Z,42.36
2023-03-29T12:31:37.339Z,41.37
2023-03-29T12:34:03.675Z,40.64
2023-03-29T12:36:30.001Z,41.01
2023-03-29T12:38:56.334Z,41.01
2023-03-29T12:41:22.659Z,41.64
2023-03-29T12:43:48.987Z,41.33
2023-03-29T12:46:15.413Z,42.19
2023-03-29T12:48:41.767Z,42.88
2023-03-29T12:51:08.111Z,41.89
2023-03-29T12:53:34.458Z,42.66
2023-03-29T12:56:01.024Z,40.71
2023-03-29T12:58:27.510Z,40.46
2023-03-29T13:00:53.848Z,41.20
2023-03-29T13:03:20.376Z,39.67
2023-03-29T13:05:46.926Z,40.72
2023-03-29T13:08:13.446Z,40.13
2023-03-29T13:10:39.777Z,41.41
2023-03-29T13:13:06.099Z,41.46
2023-03-29T13:15:32.434Z,41.31
2023-03-29T13:17:58.848Z,40.92
2023-03-29T13:20:25.204Z,41.11
2023-03-29T13:22:51.514Z,40.82
2023-03-29T13:25:17.834Z,39.41
2023-03-29T13:27:44.180Z,40.28
2023-03-29T13:30:10.522Z,38.77
2023-03-29T13:32:36.860Z,39.14
2023-03-29T13:35:03.221Z,39.32
2023-03-29T13:37:29.553Z,38.65
2023-03-29T13:39:55.857Z,38.42
2023-03-29T13:42:22.172Z,38.20
2023-03-29T13:44:48.499Z,38.37
2023-03-29T13:47:14.830Z,39.05
2023-03-29T13:49:41.169Z,38.70
2023-03-29T13:52:07.489Z,39.35
2023-03-29T13:54:33.806Z,38.92
2023-03-29T13:57:00.157Z,38.60
2023-03-29T13:59:26.528Z,38.52
2023-03-29T14:01:52.894Z,37.72
2023-03-29T14:04:19.234Z,37.39
2023-03-29T14:06:45.555Z,38.47
2023-03-29T14:09:11.867Z,37.42
2023-03-29T14:11:38.204Z,37.23
2023-03-29T14:14:04.523Z,37.59
2023-03-29T14:16:30.868Z,36.77
2023-03-29T14:18:57.222Z,37.14
2023-03-29T14:21:23.563Z,37.40
2023-03-29T14:23:49.894Z,37.28
2023-03-29T14:26:16.243Z,36.28
2023-03-29T14:28:42.567Z,36.80
2023-03-29T14:31:08.915Z,36.91
2023-03-29T14:33:35.271Z,37.02
2023-03-29T14:36:01.888Z,37.57
2023-03-29T14:38:28.449Z,37.50
2023-03-29T14:40:54.769Z,37.49
2023-03-29T14:43:21.098Z,36.74
2023-03-29T14:45:47.492Z,36.86
2023-03-29T14:48:13.861Z,38.00
2023-03-29T14:50:40.450Z,37.09
2023-03-29T14:53:06.821Z,36.38
2023-03-29T14:55:33.156Z,37.75
2023-03-29T14:57:59.493Z,38.60
2023-03-29T15:00:25.804Z,38.90
2023-03-29T15:02:52.233Z,38.33
2023-03-29T15:05:18.610Z,37.74
2023-03-29T15:07:44.939Z,38.46
2023-03-29T15:10:11.272Z,38.34
2023-03-29T15:12:37.583Z,38.10
2023-03-29T15:15:03.889Z,37.86
2023-03-29T15:17:42.624Z,37.94
2023-03-29T15:20:16.386Z,38.77
2023-03-29T15:22:42.722Z,38.36
2023-03-29T15:25:09.046Z,37.84
2023-03-29T15:27:35.377Z,38.71
2023-03-29T15:30:01.701Z,38.92
2023-03-29T15:32:28.031Z,39.24
2023-03-29T15:34:54.371Z,39.17
2023-03-29T15:37:20.746Z,39.42
2023-03-29T15:39:47.088Z,39.58
2023-03-29T15:42:13.397Z,38.86
2023-03-29T15:44:39.731Z,39.03
2023-03-29T15:47:06.086Z,39.38
2023-03-29T15:49:32.413Z,38.77
2023-03-29T15:51:58.744Z,38.72
2023-03-29T15:54:25.070Z,39.40
2023-03-29T15:56:51.455Z,39.31
2023-03-29T15:59:17.894Z,39.10
2023-03-29T16:01:44.240Z,38.93
2023-03-29T16:04:10.597Z,39.30
2023-03-29T16:06:36.980Z,39.35
2023-03-29T16:09:03.299Z,39.36
2023-03-29T16:11:29.655Z,39.70
2023-03-29T16:13:56.026Z,39.98
2023-03-29T16:16:22.437Z,39.86
2023-03-29T16:18:48.826Z,40.42
2023-03-29T16:21:15.143Z,40.35
2023-03-29T16:23:41.467Z,40.87
2023-03-29T16:26:07.779Z,41.18
2023-03-29T16:28:34.086Z,41.04
2023-03-29T16:31:00.394Z,41.01
2023-03-29T16:33:26.717Z,41.25
2023-03-29T16:35:53.151Z,41.17
2023-03-29T16:38:19.489Z,41.84
2023-03-29T16:40:45.819Z,41.22
2023-03-29T16:43:12.147Z,41.16
2023-03-29T16:45:38.512Z,41.66
2023-03-29T16:48:04.871Z,41.51
2023-03-29T16:50:31.271Z,41.32
2023-03-29T16:52:57.616Z,40.98
2023-03-29T16:55:23.936Z,41.85
2023-03-29T16:57:50.273Z,42.12
2023-03-29T17:00:16.579Z,42.10
2023-03-29T17:02:43.077Z,42.20
2023-03-29T17:05:09.476Z,41.47
2023-03-29T17:07:35.944Z,43.12
2023-03-29T17:10:02.290Z,42.38
2023-03-29T17:12:28.631Z,43.34
2023-03-29T17:14:54.951Z,44.10
2023-03-29T17:17:21.293Z,44.44
2023-03-29T17:19:47.652Z,45.21
2023-03-29T17:22:13.981Z,45.69
2023-03-29T17:24:40.299Z,46.32
2023-03-29T17:27:06.630Z,47.82
2023-03-29T17:29:32.982Z,47.81
2023-03-29T17:31:59.321Z,47.56
2023-03-29T17:34:25.639Z,49.03
2023-03-29T17:36:51.980Z,48.36
2023-03-29T17:39:18.294Z,48.73
2023-03-29T17:41:44.625Z,48.47
2023-03-29T17:44:10.962Z,46.59
2023-03-29T17:46:37.420Z,45.64
2023-03-29T17:49:03.788Z,46.11
2023-03-29T17:51:30.095Z,46.63
2023-03-29T17:53:56.418Z,47.19
2023-03-29T17:56:22.786Z,47.61
2023-03-29T17:58:49.113Z,48.44
2023-03-29T18:01:15.471Z,48.51
2023-03-29T18:03:41.837Z,48.83
2023-03-29T18:06:08.152Z,49.00
2023-03-29T18:08:34.474Z,48.84
2023-03-29T18:11:00.825Z,48.98
2023-03-29T18:13:27.152Z,49.10
2023-03-29T18:15:53.477Z,49.55
2023-03-29T18:18:19.787Z,50.09
2023-03-29T18:20:46.124Z,51.14
2023-03-29T18:23:12.467Z,51.13
2023-03-29T18:25:39.040Z,50.48
2023-03-29T18:28:05.373Z,49.96
2023-03-29T18:30:31.690Z,50.45
2023-03-29T18:32:58.051Z,50.12
2023-03-29T18:35:24.410Z,50.46
2023-03-29T18:37:50.730Z,49.44
2023-03-29T18:40:17.041Z,49.30
2023-03-29T18:42:43.354Z,49.98
2023-03-29T18:45:09.672Z,50.23
2023-03-29T18:47:36.079Z,51.05
2023-03-29T18:50:02.474Z,51.10
2023-03-29T18:52:28.821Z,51.29
2023-03-29T18:54:55.158Z,51.80
2023-03-29T18:57:21.548Z,51.48
2023-03-29T18:59:47.894Z,51.03
2023-03-29T19:02:14.232Z,51.10
2023-03-29T19:04:40.561Z,51.50
2023-03-29T19:07:06.895Z,51.93
2023-03-29T19:09:33.221Z,53.14
2023-03-29T19:11:59.555Z,52.96
2023-03-29T19:14:25.882Z,52.67
2023-03-29T19:16:52.205Z,52.78
2023-03-29T19:19:18.510Z,52.84
2023-03-29T19:21:44.844Z,52.05
2023-03-29T19:24:11.173Z,52.08
2023-03-29T19:26:37.502Z,51.24
2023-03-29T19:29:03.833Z,51.46
2023-03-29T19:31:30.299Z,51.30
2023-03-29T19:33:56.696Z,51.82
2023-03-29T19:36:23.037Z,52.21
2023-03-29T19:38:49.346Z,52.19
2023-03-29T19:41:15.674Z,52.73
2023-03-29T19:43:41.986Z,52.33
2023-03-29T19:46:08.437Z,51.96
2023-03-29T19:48:34.882Z,52.08
2023-03-29T19:51:01.252Z,52.46
2023-03-29T19:53:27.566Z,52.21
2023-03-29T19:55:53.890Z,52.38
2023-03-29T19:58:20.227Z,53.12
2023-03-29T20:00:46.547Z,53.46
2023-03-29T20:03:12.922Z,53.59
2023-03-29T20:05:39.266Z,54.26
2023-03-29T20:08:05.578Z,54.91
2023-03-29T20:10:31.901Z,54.11
2023-03-29T20:12:58.225Z,53.59
2023-03-29T20:15:24.558Z,53.48
2023-03-29T20:17:50.911Z,53.74
2023-03-29T20:20:17.249Z,54.98
2023-03-29T20:22:43.564Z,54.97
2023-03-29T20:25:09.953Z,55.32
2023-03-29T20:27:36.292Z,55.59
2023-03-29T20:30:02.617Z,56.10
2023-03-29T20:32:28.947Z,55.88
2023-03-29T20:34:55.307Z,55.90
2023-03-29T20:37:21.622Z,56.06
2023-03-29T20:39:47.969Z,56.03
2023-03-29T20:42:14.307Z,55.70
2023-03-29T20:44:40.638Z,55.63
2023-03-29T20:47:06.961Z,55.26
2023-03-29T20:49:33.295Z,54.71
2023-03-29T20:51:59.630Z,55.54
2023-03-29T20:54:25.937Z,55.13
2023-03-29T20:56:52.301Z,55.22
2023-03-29T20:59:18.632Z,55.36
2023-03-29T21:01:45.022Z,54.60
2023-03-29T21:04:11.404Z,55.02
2023-03-29T21:06:37.702Z,55.28
2023-03-29T21:09:04.024Z,55.48
2023-03-29T21:11:30.359Z,56.34
2023-03-29T21:13:56.696Z,56.20
2023-03-29T21:16:23.145Z,55.44
2023-03-29T21:18:49.551Z,56.02
2023-03-29T21:21:15.879Z,55.65
2023-03-29T21:23:42.195Z,56.11
2023-03-29T21:26:08.521Z,55.63
2023-03-29T21:28:34.855Z,56.28
2023-03-29T21:31:01.396Z,56.56
2023-03-29T21:33:27.883Z,57.21
2023-03-29T21:35:54.228Z,56.63
2023-03-29T21:38:20.594Z,56.73
2023-03-29T21:40:46.922Z,55.63
2023-03-29T21:43:13.231Z,55.17
2023-03-29T21:45:39.533Z,56.25
2023-03-29T21:48:05.879Z,56.23
2023-03-29T21:50:33.797Z,55.25
2023-03-29T21:53:00.343Z,55.22
2023-03-29T21:55:26.650Z,56.61
2023-03-29T21:57:52.965Z,56.08
2023-03-29T22:00:19.293Z,57.66
2023-03-29T22:02:45.758Z,57.58
2023-03-29T22:05:12.248Z,58.30
2023-03-29T22:07:38.664Z,58.56
2023-03-29T22:10:05.082Z,58.47
2023-03-29T22:12:31.554Z,59.45
2023-03-29T22:14:57.888Z,59.97
2023-03-29T22:17:24.241Z,60.29
2023-03-29T22:19:50.605Z,59.85
2023-03-29T22:22:16.917Z,59.09
2023-03-29T22:24:43.252Z,57.77
2023-03-29T22:27:09.555Z,57.39
2023-03-29T22:29:35.858Z,57.33
2023-03-29T22:32:02.237Z,57.46
2023-03-29T22:34:28.641Z,57.06
2023-03-29T22:36:54.960Z,56.11
2023-03-29T22:39:21.299Z,56.99
2023-03-29T22:41:47.610Z,57.47
2023-03-29T22:44:13.935Z,57.84
2023-03-29T22:46:40.248Z,57.64
2023-03-29T22:49:06.574Z,59.20
2023-03-29T22:51:32.905Z,59.05
2023-03-29T22:53:59.249Z,58.92
2023-03-29T22:56:25.686Z,59.74
2023-03-29T22:58:52.025Z,59.33
2023-03-29T23:01:18.352Z,59.58
2023-03-29T23:03:44.678Z,60.67
2023-03-29T23:06:10.990Z,59.19
2023-03-29T23:08:37.297Z,59.72
2023-03-29T23:11:03.731Z,59.62
2023-03-29T23:13:30.228Z,59.22
2023-03-29T23:15:56.589Z,59.46
2023-03-29T23:18:22.962Z,57.67
2023-03-29T23:20:49.269Z,57.70
2023-03-29T23:23:15.577Z,56.99
2023-03-29T23:25:41.896Z,59.61
2023-03-29T23:28:08.224Z,59.71
2023-03-29T23:30:34.587Z,60.02
2023-03-29T23:33:00.956Z,59.09
2023-03-29T23:35:27.387Z,57.93
2023-03-29T23:37:53.742Z,58.21
2023-03-29T23:40:20.074Z,57.10
2023-03-29T23:42:46.399Z,57.23
2023-03-29T23:45:12.743Z,57.25
2023-03-29T23:47:39.087Z,57.55
2023-03-29T23:50:05.448Z,57.95
2023-03-29T23:52:31.760Z,58.03
2023-03-29T23:54:58.092Z,58.84
2023-03-29T23:57:24.461Z,59.04
2023-03-29T23:59:50.806Z,60.32
